sensor_id;sensor_type;location;lat;lon;timestamp;P1;durP1;ratioP1;P2;durP2;ratioP2
11524;SDS011;5819;49.648;8.330;2022-12-11T00:01:48;26.50;;;18.20;;
11524;SDS011;5819;49.648;8.330;2022-12-11T00:04:16;26.43;;;17.90;;
11524;SDS011;5819;49.648;8.330;2022-12-11T00:06:45;27.33;;;18.53;;
11524;SDS011;5819;49.648;8.330;2022-12-11T00:09:15;26.70;;;18.97;;
11524;SDS011;5819;49.648;8.330;2022-12-11T00:11:43;29.93;;;19.27;;
11524;SDS011;5819;49.648;8.330;2022-12-11T00:14:11;30.93;;;20.17;;
11524;SDS011;5819;49.648;8.330;2022-12-11T00:16:40;32.47;;;21.63;;
11524;SDS011;5819;49.648;8.330;2022-12-11T00:19:08;35.93;;;24.17;;
11524;SDS011;5819;49.648;8.330;2022-12-11T00:21:36;33.43;;;22.83;;
11524;SDS011;5819;49.648;8.330;2022-12-11T00:24:05;37.40;;;24.23;;
11524;SDS011;5819;49.648;8.330;2022-12-11T00:26:33;37.87;;;24.70;;
11524;SDS011;5819;49.648;8.330;2022-12-11T00:29:01;34.53;;;23.70;;
11524;SDS011;5819;49.648;8.330;2022-12-11T00:31:29;36.60;;;24.63;;
11524;SDS011;5819;49.648;8.330;2022-12-11T00:33:57;35.70;;;23.40;;
11524;SDS011;5819;49.648;8.330;2022-12-11T00:36:25;38.40;;;24.10;;
11524;SDS011;5819;49.648;8.330;2022-12-11T00:38:53;34.47;;;23.30;;
11524;SDS011;5819;49.648;8.330;2022-12-11T00:41:22;39.03;;;25.07;;
11524;SDS011;5819;49.648;8.330;2022-12-11T00:43:50;36.43;;;23.67;;
11524;SDS011;5819;49.648;8.330;2022-12-11T00:46:18;35.97;;;23.33;;
11524;SDS011;5819;49.648;8.330;2022-12-11T00:48:46;37.17;;;24.43;;
11524;SDS011;5819;49.648;8.330;2022-12-11T00:51:15;34.57;;;23.40;;
11524;SDS011;5819;49.648;8.330;2022-12-11T00:53:43;31.33;;;21.33;;
11524;SDS011;5819;49.648;8.330;2022-12-11T00:56:12;33.47;;;22.17;;
11524;SDS011;5819;49.648;8.330;2022-12-11T00:58:43;39.87;;;24.10;;
11524;SDS011;5819;49.648;8.330;2022-12-11T01:01:13;34.77;;;22.63;;
11524;SDS011;5819;49.648;8.330;2022-12-11T01:03:42;30.23;;;20.03;;
11524;SDS011;5819;49.648;8.330;2022-12-11T01:06:11;28.30;;;19.63;;
11524;SDS011;5819;49.648;8.330;2022-12-11T01:08:40;29.30;;;19.13;;
11524;SDS011;5819;49.648;8.330;2022-12-11T01:11:10;28.43;;;18.07;;
11524;SDS011;5819;49.648;8.330;2022-12-11T01:13:39;33.70;;;19.20;;
11524;SDS011;5819;49.648;8.330;2022-12-11T01:16:09;29.57;;;19.67;;
11524;SDS011;5819;49.648;8.330;2022-12-11T01:18:40;34.20;;;21.53;;
11524;SDS011;5819;49.648;8.330;2022-12-11T01:21:09;37.77;;;22.40;;
11524;SDS011;5819;49.648;8.330;2022-12-11T01:23:38;38.27;;;24.47;;
11524;SDS011;5819;49.648;8.330;2022-12-11T01:26:07;35.93;;;24.03;;
11524;SDS011;5819;49.648;8.330;2022-12-11T01:28:35;34.97;;;22.40;;
11524;SDS011;5819;49.648;8.330;2022-12-11T01:31:06;33.53;;;21.63;;
11524;SDS011;5819;49.648;8.330;2022-12-11T01:33:36;34.93;;;22.20;;
11524;SDS011;5819;49.648;8.330;2022-12-11T01:36:06;33.70;;;21.47;;
11524;SDS011;5819;49.648;8.330;2022-12-11T01:38:35;30.23;;;19.50;;
11524;SDS011;5819;49.648;8.330;2022-12-11T01:41:03;29.43;;;19.80;;
11524;SDS011;5819;49.648;8.330;2022-12-11T01:43:31;26.87;;;18.67;;
11524;SDS011;5819;49.648;8.330;2022-12-11T01:45:59;30.47;;;18.77;;
11524;SDS011;5819;49.648;8.330;2022-12-11T01:48:27;26.00;;;18.07;;
11524;SDS011;5819;49.648;8.330;2022-12-11T01:51:07;30.03;;;18.27;;
11524;SDS011;5819;49.648;8.330;2022-12-11T01:53:36;30.13;;;19.37;;
11524;SDS011;5819;49.648;8.330;2022-12-11T01:56:06;30.67;;;18.03;;
11524;SDS011;5819;49.648;8.330;2022-12-11T01:58:36;28.13;;;19.67;;
11524;SDS011;5819;49.648;8.330;2022-12-11T02:01:08;28.20;;;18.60;;
11524;SDS011;5819;49.648;8.330;2022-12-11T02:03:38;28.73;;;18.50;;
11524;SDS011;5819;49.648;8.330;2022-12-11T02:09:02;27.63;;;19.10;;
11524;SDS011;5819;49.648;8.330;2022-12-11T02:11:35;29.73;;;19.83;;
11524;SDS011;5819;49.648;8.330;2022-12-11T02:14:11;26.80;;;18.43;;
11524;SDS011;5819;49.648;8.330;2022-12-11T02:16:45;27.90;;;17.90;;
11524;SDS011;5819;49.648;8.330;2022-12-11T02:19:20;28.00;;;18.47;;
11524;SDS011;5819;49.648;8.330;2022-12-11T02:22:09;27.67;;;18.03;;
11524;SDS011;5819;49.648;8.330;2022-12-11T02:24:46;30.60;;;19.10;;
11524;SDS011;5819;49.648;8.330;2022-12-11T02:27:27;27.10;;;18.73;;
11524;SDS011;5819;49.648;8.330;2022-12-11T02:30:04;30.70;;;19.50;;
11524;SDS011;5819;49.648;8.330;2022-12-11T02:32:35;30.73;;;20.30;;
11524;SDS011;5819;49.648;8.330;2022-12-11T02:35:10;28.30;;;18.40;;
11524;SDS011;5819;49.648;8.330;2022-12-11T02:37:42;31.30;;;19.97;;
11524;SDS011;5819;49.648;8.330;2022-12-11T02:40:14;28.87;;;19.13;;
11524;SDS011;5819;49.648;8.330;2022-12-11T02:42:46;28.87;;;19.43;;
11524;SDS011;5819;49.648;8.330;2022-12-11T02:45:18;28.83;;;19.37;;
11524;SDS011;5819;49.648;8.330;2022-12-11T02:47:48;30.17;;;19.20;;
11524;SDS011;5819;49.648;8.330;2022-12-11T02:50:17;28.03;;;19.03;;
11524;SDS011;5819;49.648;8.330;2022-12-11T02:52:48;28.20;;;19.80;;
11524;SDS011;5819;49.648;8.330;2022-12-11T02:55:18;28.90;;;19.23;;
11524;SDS011;5819;49.648;8.330;2022-12-11T02:57:48;32.13;;;20.13;;
11524;SDS011;5819;49.648;8.330;2022-12-11T03:00:20;29.27;;;19.73;;
11524;SDS011;5819;49.648;8.330;2022-12-11T03:02:48;29.70;;;19.37;;
11524;SDS011;5819;49.648;8.330;2022-12-11T03:05:16;27.57;;;19.27;;
11524;SDS011;5819;49.648;8.330;2022-12-11T03:07:44;29.73;;;19.33;;
11524;SDS011;5819;49.648;8.330;2022-12-11T03:10:13;28.67;;;19.73;;
11524;SDS011;5819;49.648;8.330;2022-12-11T03:12:44;32.03;;;20.10;;
11524;SDS011;5819;49.648;8.330;2022-12-11T03:15:21;29.37;;;20.40;;
11524;SDS011;5819;49.648;8.330;2022-12-11T03:17:56;27.97;;;19.37;;
11524;SDS011;5819;49.648;8.330;2022-12-11T03:20:33;29.50;;;18.57;;
11524;SDS011;5819;49.648;8.330;2022-12-11T03:23:07;31.30;;;20.27;;
11524;SDS011;5819;49.648;8.330;2022-12-11T03:25:41;27.50;;;19.10;;
11524;SDS011;5819;49.648;8.330;2022-12-11T03:28:14;30.73;;;20.30;;
11524;SDS011;5819;49.648;8.330;2022-12-11T03:30:47;32.93;;;21.13;;
11524;SDS011;5819;49.648;8.330;2022-12-11T03:33:19;30.47;;;19.00;;
11524;SDS011;5819;49.648;8.330;2022-12-11T03:35:52;27.20;;;18.97;;
11524;SDS011;5819;49.648;8.330;2022-12-11T03:38:23;31.17;;;20.27;;
11524;SDS011;5819;49.648;8.330;2022-12-11T03:40:54;28.40;;;19.33;;
11524;SDS011;5819;49.648;8.330;2022-12-11T03:43:27;27.27;;;19.03;;
11524;SDS011;5819;49.648;8.330;2022-12-11T03:45:58;33.27;;;20.97;;
11524;SDS011;5819;49.648;8.330;2022-12-11T03:48:29;29.80;;;19.97;;
11524;SDS011;5819;49.648;8.330;2022-12-11T03:51:00;34.30;;;21.20;;
11524;SDS011;5819;49.648;8.330;2022-12-11T03:53:31;31.40;;;20.97;;
11524;SDS011;5819;49.648;8.330;2022-12-11T03:56:01;29.33;;;19.60;;
11524;SDS011;5819;49.648;8.330;2022-12-11T03:58:30;27.83;;;19.73;;
11524;SDS011;5819;49.648;8.330;2022-12-11T04:00:59;31.03;;;20.73;;
11524;SDS011;5819;49.648;8.330;2022-12-11T04:03:27;31.50;;;20.20;;
11524;SDS011;5819;49.648;8.330;2022-12-11T04:05:56;30.83;;;20.30;;
11524;SDS011;5819;49.648;8.330;2022-12-11T04:08:23;28.27;;;19.83;;
11524;SDS011;5819;49.648;8.330;2022-12-11T04:10:51;29.03;;;20.60;;
11524;SDS011;5819;49.648;8.330;2022-12-11T04:13:39;31.27;;;20.23;;
11524;SDS011;5819;49.648;8.330;2022-12-11T04:16:09;28.60;;;20.23;;
11524;SDS011;5819;49.648;8.330;2022-12-11T04:18:36;32.47;;;21.60;;
11524;SDS011;5819;49.648;8.330;2022-12-11T04:21:21;30.03;;;20.50;;
11524;SDS011;5819;49.648;8.330;2022-12-11T04:24:06;31.47;;;21.33;;
11524;SDS011;5819;49.648;8.330;2022-12-11T04:26:41;31.60;;;21.03;;
11524;SDS011;5819;49.648;8.330;2022-12-11T04:29:09;29.90;;;20.83;;
11524;SDS011;5819;49.648;8.330;2022-12-11T04:31:38;30.10;;;21.27;;
11524;SDS011;5819;49.648;8.330;2022-12-11T04:34:06;28.57;;;20.60;;
11524;SDS011;5819;49.648;8.330;2022-12-11T04:36:34;30.63;;;20.77;;
11524;SDS011;5819;49.648;8.330;2022-12-11T04:39:01;32.83;;;21.37;;
11524;SDS011;5819;49.648;8.330;2022-12-11T04:41:30;30.40;;;20.10;;
11524;SDS011;5819;49.648;8.330;2022-12-11T04:43:59;32.23;;;21.40;;
11524;SDS011;5819;49.648;8.330;2022-12-11T04:46:26;30.30;;;20.77;;
11524;SDS011;5819;49.648;8.330;2022-12-11T04:48:56;34.77;;;21.30;;
11524;SDS011;5819;49.648;8.330;2022-12-11T04:51:26;30.30;;;20.43;;
11524;SDS011;5819;49.648;8.330;2022-12-11T04:53:54;29.20;;;20.33;;
11524;SDS011;5819;49.648;8.330;2022-12-11T04:56:22;30.53;;;21.03;;
11524;SDS011;5819;49.648;8.330;2022-12-11T04:58:51;32.07;;;21.70;;
11524;SDS011;5819;49.648;8.330;2022-12-11T05:01:19;29.60;;;21.30;;
11524;SDS011;5819;49.648;8.330;2022-12-11T05:03:48;31.13;;;21.10;;
11524;SDS011;5819;49.648;8.330;2022-12-11T05:06:17;32.17;;;21.27;;
11524;SDS011;5819;49.648;8.330;2022-12-11T05:08:45;32.00;;;21.80;;
11524;SDS011;5819;49.648;8.330;2022-12-11T05:11:13;29.83;;;20.83;;
11524;SDS011;5819;49.648;8.330;2022-12-11T05:13:42;30.93;;;20.60;;
11524;SDS011;5819;49.648;8.330;2022-12-11T05:16:11;34.87;;;21.53;;
11524;SDS011;5819;49.648;8.330;2022-12-11T05:18:40;30.67;;;20.77;;
11524;SDS011;5819;49.648;8.330;2022-12-11T05:21:10;33.60;;;21.40;;
11524;SDS011;5819;49.648;8.330;2022-12-11T05:23:41;34.40;;;22.33;;
11524;SDS011;5819;49.648;8.330;2022-12-11T05:26:10;34.17;;;22.23;;
11524;SDS011;5819;49.648;8.330;2022-12-11T05:28:40;30.47;;;22.13;;
11524;SDS011;5819;49.648;8.330;2022-12-11T05:31:10;35.93;;;22.03;;
11524;SDS011;5819;49.648;8.330;2022-12-11T05:33:39;32.03;;;22.07;;
11524;SDS011;5819;49.648;8.330;2022-12-11T05:36:08;31.33;;;21.97;;
11524;SDS011;5819;49.648;8.330;2022-12-11T05:38:42;32.67;;;22.40;;
11524;SDS011;5819;49.648;8.330;2022-12-11T05:41:11;32.40;;;22.13;;
11524;SDS011;5819;49.648;8.330;2022-12-11T05:43:40;32.33;;;21.90;;
11524;SDS011;5819;49.648;8.330;2022-12-11T05:46:09;34.03;;;22.70;;
11524;SDS011;5819;49.648;8.330;2022-12-11T05:48:38;34.63;;;22.07;;
11524;SDS011;5819;49.648;8.330;2022-12-11T05:51:07;37.27;;;23.00;;
11524;SDS011;5819;49.648;8.330;2022-12-11T05:53:36;35.33;;;22.83;;
11524;SDS011;5819;49.648;8.330;2022-12-11T05:56:07;35.13;;;24.03;;
11524;SDS011;5819;49.648;8.330;2022-12-11T05:58:37;36.40;;;21.93;;
11524;SDS011;5819;49.648;8.330;2022-12-11T06:01:05;31.77;;;21.60;;
11524;SDS011;5819;49.648;8.330;2022-12-11T06:03:34;30.20;;;21.50;;
11524;SDS011;5819;49.648;8.330;2022-12-11T06:06:02;35.03;;;22.40;;
11524;SDS011;5819;49.648;8.330;2022-12-11T06:08:30;35.13;;;23.37;;
11524;SDS011;5819;49.648;8.330;2022-12-11T06:10:58;34.47;;;22.13;;
11524;SDS011;5819;49.648;8.330;2022-12-11T06:13:27;35.37;;;21.87;;
11524;SDS011;5819;49.648;8.330;2022-12-11T06:15:58;33.37;;;22.33;;
11524;SDS011;5819;49.648;8.330;2022-12-11T06:18:27;36.97;;;22.90;;
11524;SDS011;5819;49.648;8.330;2022-12-11T06:20:54;34.60;;;22.67;;
11524;SDS011;5819;49.648;8.330;2022-12-11T06:23:22;38.70;;;24.77;;
11524;SDS011;5819;49.648;8.330;2022-12-11T06:25:50;35.17;;;23.97;;
11524;SDS011;5819;49.648;8.330;2022-12-11T06:28:18;34.53;;;23.80;;
11524;SDS011;5819;49.648;8.330;2022-12-11T06:30:47;34.80;;;24.00;;
11524;SDS011;5819;49.648;8.330;2022-12-11T06:33:15;35.90;;;23.80;;
11524;SDS011;5819;49.648;8.330;2022-12-11T06:35:43;34.30;;;23.60;;
11524;SDS011;5819;49.648;8.330;2022-12-11T06:38:10;36.70;;;24.43;;
11524;SDS011;5819;49.648;8.330;2022-12-11T06:40:38;39.10;;;25.03;;
11524;SDS011;5819;49.648;8.330;2022-12-11T06:43:06;34.47;;;23.93;;
11524;SDS011;5819;49.648;8.330;2022-12-11T06:45:33;34.73;;;22.93;;
11524;SDS011;5819;49.648;8.330;2022-12-11T06:48:04;36.73;;;23.00;;
11524;SDS011;5819;49.648;8.330;2022-12-11T06:50:32;38.20;;;23.57;;
11524;SDS011;5819;49.648;8.330;2022-12-11T06:52:59;36.13;;;22.00;;
11524;SDS011;5819;49.648;8.330;2022-12-11T06:55:27;39.43;;;24.93;;
11524;SDS011;5819;49.648;8.330;2022-12-11T06:57:55;40.33;;;24.20;;
11524;SDS011;5819;49.648;8.330;2022-12-11T07:00:22;38.03;;;24.63;;
11524;SDS011;5819;49.648;8.330;2022-12-11T07:02:50;37.23;;;24.33;;
11524;SDS011;5819;49.648;8.330;2022-12-11T07:05:19;40.13;;;22.60;;
11524;SDS011;5819;49.648;8.330;2022-12-11T07:07:47;34.90;;;22.60;;
11524;SDS011;5819;49.648;8.330;2022-12-11T07:10:16;36.03;;;23.03;;
11524;SDS011;5819;49.648;8.330;2022-12-11T07:12:43;37.43;;;24.97;;
11524;SDS011;5819;49.648;8.330;2022-12-11T07:15:11;38.93;;;23.70;;
11524;SDS011;5819;49.648;8.330;2022-12-11T07:17:39;39.47;;;26.00;;
11524;SDS011;5819;49.648;8.330;2022-12-11T07:20:07;40.20;;;25.97;;
11524;SDS011;5819;49.648;8.330;2022-12-11T07:22:37;44.23;;;26.73;;
11524;SDS011;5819;49.648;8.330;2022-12-11T07:25:11;42.30;;;27.40;;
11524;SDS011;5819;49.648;8.330;2022-12-11T07:27:39;44.20;;;28.07;;
11524;SDS011;5819;49.648;8.330;2022-12-11T07:30:08;42.67;;;27.83;;
11524;SDS011;5819;49.648;8.330;2022-12-11T07:32:36;44.30;;;27.87;;
11524;SDS011;5819;49.648;8.330;2022-12-11T07:35:04;45.83;;;27.53;;
11524;SDS011;5819;49.648;8.330;2022-12-11T07:37:33;41.60;;;26.60;;
11524;SDS011;5819;49.648;8.330;2022-12-11T07:40:02;47.47;;;27.70;;
11524;SDS011;5819;49.648;8.330;2022-12-11T07:42:30;44.77;;;27.57;;
11524;SDS011;5819;49.648;8.330;2022-12-11T07:44:58;43.60;;;28.37;;
11524;SDS011;5819;49.648;8.330;2022-12-11T07:47:26;42.97;;;27.73;;
11524;SDS011;5819;49.648;8.330;2022-12-11T07:49:53;40.20;;;26.43;;
11524;SDS011;5819;49.648;8.330;2022-12-11T07:52:21;39.50;;;25.23;;
11524;SDS011;5819;49.648;8.330;2022-12-11T07:54:49;40.33;;;26.13;;
11524;SDS011;5819;49.648;8.330;2022-12-11T07:57:18;40.77;;;25.63;;
11524;SDS011;5819;49.648;8.330;2022-12-11T07:59:46;39.70;;;25.97;;
11524;SDS011;5819;49.648;8.330;2022-12-11T08:02:14;39.63;;;24.47;;
11524;SDS011;5819;49.648;8.330;2022-12-11T08:04:42;38.80;;;25.60;;
11524;SDS011;5819;49.648;8.330;2022-12-11T08:07:10;37.93;;;23.70;;
11524;SDS011;5819;49.648;8.330;2022-12-11T08:09:38;37.47;;;24.67;;
11524;SDS011;5819;49.648;8.330;2022-12-11T08:12:06;37.20;;;24.70;;
11524;SDS011;5819;49.648;8.330;2022-12-11T08:14:35;35.53;;;23.50;;
11524;SDS011;5819;49.648;8.330;2022-12-11T08:17:03;34.13;;;22.30;;
11524;SDS011;5819;49.648;8.330;2022-12-11T08:19:31;35.43;;;23.93;;
11524;SDS011;5819;49.648;8.330;2022-12-11T08:21:58;33.60;;;21.00;;
11524;SDS011;5819;49.648;8.330;2022-12-11T08:24:26;31.80;;;21.40;;
11524;SDS011;5819;49.648;8.330;2022-12-11T08:26:53;36.90;;;21.97;;
11524;SDS011;5819;49.648;8.330;2022-12-11T08:29:21;34.33;;;23.10;;
11524;SDS011;5819;49.648;8.330;2022-12-11T08:31:50;29.17;;;20.63;;
11524;SDS011;5819;49.648;8.330;2022-12-11T08:34:18;34.87;;;22.23;;
11524;SDS011;5819;49.648;8.330;2022-12-11T08:36:46;39.07;;;23.77;;
11524;SDS011;5819;49.648;8.330;2022-12-11T08:39:14;31.13;;;20.80;;
11524;SDS011;5819;49.648;8.330;2022-12-11T08:41:41;32.50;;;22.67;;
11524;SDS011;5819;49.648;8.330;2022-12-11T08:44:10;31.30;;;21.13;;
11524;SDS011;5819;49.648;8.330;2022-12-11T08:46:42;33.50;;;22.13;;
11524;SDS011;5819;49.648;8.330;2022-12-11T08:49:12;31.90;;;21.07;;
11524;SDS011;5819;49.648;8.330;2022-12-11T08:51:39;34.30;;;22.67;;
11524;SDS011;5819;49.648;8.330;2022-12-11T08:54:07;33.20;;;21.07;;
11524;SDS011;5819;49.648;8.330;2022-12-11T08:56:36;33.43;;;21.33;;
11524;SDS011;5819;49.648;8.330;2022-12-11T08:59:03;30.03;;;20.43;;
11524;SDS011;5819;49.648;8.330;2022-12-11T09:01:32;36.20;;;21.60;;
11524;SDS011;5819;49.648;8.330;2022-12-11T09:04:00;34.00;;;22.17;;
11524;SDS011;5819;49.648;8.330;2022-12-11T09:06:29;34.27;;;22.33;;
11524;SDS011;5819;49.648;8.330;2022-12-11T09:08:59;35.37;;;21.93;;
11524;SDS011;5819;49.648;8.330;2022-12-11T09:11:29;34.97;;;23.07;;
11524;SDS011;5819;49.648;8.330;2022-12-11T09:13:58;36.67;;;23.23;;
11524;SDS011;5819;49.648;8.330;2022-12-11T09:16:33;32.33;;;22.60;;
11524;SDS011;5819;49.648;8.330;2022-12-11T09:19:03;33.53;;;22.03;;
11524;SDS011;5819;49.648;8.330;2022-12-11T09:21:34;33.30;;;22.93;;
11524;SDS011;5819;49.648;8.330;2022-12-11T09:24:02;35.37;;;23.37;;
11524;SDS011;5819;49.648;8.330;2022-12-11T09:26:30;34.07;;;21.87;;
11524;SDS011;5819;49.648;8.330;2022-12-11T09:28:57;31.77;;;22.53;;
11524;SDS011;5819;49.648;8.330;2022-12-11T09:31:26;29.53;;;21.13;;
11524;SDS011;5819;49.648;8.330;2022-12-11T09:33:56;33.23;;;22.47;;
11524;SDS011;5819;49.648;8.330;2022-12-11T09:36:24;32.67;;;22.47;;
11524;SDS011;5819;49.648;8.330;2022-12-11T09:38:54;31.60;;;22.23;;
11524;SDS011;5819;49.648;8.330;2022-12-11T09:41:28;32.87;;;23.30;;
11524;SDS011;5819;49.648;8.330;2022-12-11T09:44:05;34.13;;;22.37;;
11524;SDS011;5819;49.648;8.330;2022-12-11T09:46:42;33.50;;;22.03;;
11524;SDS011;5819;49.648;8.330;2022-12-11T09:49:14;33.30;;;21.90;;
11524;SDS011;5819;49.648;8.330;2022-12-11T09:51:49;31.10;;;21.60;;
11524;SDS011;5819;49.648;8.330;2022-12-11T09:54:26;34.47;;;23.70;;
11524;SDS011;5819;49.648;8.330;2022-12-11T09:56:55;34.97;;;23.27;;
11524;SDS011;5819;49.648;8.330;2022-12-11T09:59:31;34.10;;;23.03;;
11524;SDS011;5819;49.648;8.330;2022-12-11T10:02:13;37.63;;;25.33;;
11524;SDS011;5819;49.648;8.330;2022-12-11T10:04:56;40.17;;;24.97;;
11524;SDS011;5819;49.648;8.330;2022-12-11T10:07:35;38.63;;;24.13;;
11524;SDS011;5819;49.648;8.330;2022-12-11T10:10:14;38.43;;;24.80;;
11524;SDS011;5819;49.648;8.330;2022-12-11T10:12:50;40.90;;;25.20;;
11524;SDS011;5819;49.648;8.330;2022-12-11T10:15:33;39.57;;;23.37;;
11524;SDS011;5819;49.648;8.330;2022-12-11T10:18:08;37.70;;;24.23;;
11524;SDS011;5819;49.648;8.330;2022-12-11T10:20:39;39.43;;;24.70;;
11524;SDS011;5819;49.648;8.330;2022-12-11T10:23:12;37.97;;;24.13;;
11524;SDS011;5819;49.648;8.330;2022-12-11T10:25:46;38.70;;;24.43;;
11524;SDS011;5819;49.648;8.330;2022-12-11T10:28:19;41.87;;;25.10;;
11524;SDS011;5819;49.648;8.330;2022-12-11T10:30:48;36.87;;;23.70;;
11524;SDS011;5819;49.648;8.330;2022-12-11T10:33:25;37.33;;;24.23;;
11524;SDS011;5819;49.648;8.330;2022-12-11T10:36:00;43.10;;;26.10;;
11524;SDS011;5819;49.648;8.330;2022-12-11T10:38:28;41.00;;;24.47;;
11524;SDS011;5819;49.648;8.330;2022-12-11T10:40:59;38.43;;;24.37;;
11524;SDS011;5819;49.648;8.330;2022-12-11T10:43:33;42.23;;;24.23;;
11524;SDS011;5819;49.648;8.330;2022-12-11T10:46:02;43.57;;;25.63;;
11524;SDS011;5819;49.648;8.330;2022-12-11T10:48:31;38.17;;;24.87;;
11524;SDS011;5819;49.648;8.330;2022-12-11T10:51:00;39.40;;;24.57;;
11524;SDS011;5819;49.648;8.330;2022-12-11T10:53:29;49.50;;;28.07;;
11524;SDS011;5819;49.648;8.330;2022-12-11T10:56:01;41.80;;;25.90;;
11524;SDS011;5819;49.648;8.330;2022-12-11T10:58:29;39.13;;;23.77;;
11524;SDS011;5819;49.648;8.330;2022-12-11T11:01:04;39.50;;;24.00;;
11524;SDS011;5819;49.648;8.330;2022-12-11T11:03:35;41.60;;;25.17;;
11524;SDS011;5819;49.648;8.330;2022-12-11T11:06:13;40.50;;;26.10;;
11524;SDS011;5819;49.648;8.330;2022-12-11T11:08:43;43.17;;;26.07;;
11524;SDS011;5819;49.648;8.330;2022-12-11T11:11:19;42.93;;;26.57;;
11524;SDS011;5819;49.648;8.330;2022-12-11T11:14:03;40.43;;;23.87;;
11524;SDS011;5819;49.648;8.330;2022-12-11T11:16:34;42.47;;;25.33;;
11524;SDS011;5819;49.648;8.330;2022-12-11T11:19:03;40.77;;;26.10;;
11524;SDS011;5819;49.648;8.330;2022-12-11T11:21:33;41.43;;;26.90;;
11524;SDS011;5819;49.648;8.330;2022-12-11T11:24:02;43.67;;;25.80;;
11524;SDS011;5819;49.648;8.330;2022-12-11T11:26:31;43.40;;;27.50;;
11524;SDS011;5819;49.648;8.330;2022-12-11T11:29:22;40.97;;;25.60;;
11524;SDS011;5819;49.648;8.330;2022-12-11T11:31:54;41.70;;;26.27;;
11524;SDS011;5819;49.648;8.330;2022-12-11T11:34:21;41.30;;;26.57;;
11524;SDS011;5819;49.648;8.330;2022-12-11T11:36:55;44.90;;;26.73;;
11524;SDS011;5819;49.648;8.330;2022-12-11T11:39:28;45.10;;;27.00;;
11524;SDS011;5819;49.648;8.330;2022-12-11T11:42:04;39.03;;;25.20;;
11524;SDS011;5819;49.648;8.330;2022-12-11T11:44:40;45.43;;;27.80;;
11524;SDS011;5819;49.648;8.330;2022-12-11T11:47:12;46.70;;;27.17;;
11524;SDS011;5819;49.648;8.330;2022-12-11T11:49:45;44.70;;;26.70;;
11524;SDS011;5819;49.648;8.330;2022-12-11T11:52:18;44.00;;;26.97;;
11524;SDS011;5819;49.648;8.330;2022-12-11T11:54:54;44.10;;;26.23;;
11524;SDS011;5819;49.648;8.330;2022-12-11T11:57:33;46.13;;;26.23;;
11524;SDS011;5819;49.648;8.330;2022-12-11T12:00:14;41.63;;;26.73;;
11524;SDS011;5819;49.648;8.330;2022-12-11T12:02:46;44.63;;;26.10;;
11524;SDS011;5819;49.648;8.330;2022-12-11T12:05:16;42.90;;;26.20;;
11524;SDS011;5819;49.648;8.330;2022-12-11T12:07:54;44.03;;;26.00;;
11524;SDS011;5819;49.648;8.330;2022-12-11T12:10:31;42.63;;;27.00;;
11524;SDS011;5819;49.648;8.330;2022-12-11T12:13:09;46.93;;;25.80;;
11524;SDS011;5819;49.648;8.330;2022-12-11T12:16:03;49.47;;;27.40;;
11524;SDS011;5819;49.648;8.330;2022-12-11T12:19:02;47.37;;;29.80;;
11524;SDS011;5819;49.648;8.330;2022-12-11T12:21:39;46.20;;;28.63;;
11524;SDS011;5819;49.648;8.330;2022-12-11T12:24:15;49.53;;;28.93;;
11524;SDS011;5819;49.648;8.330;2022-12-11T12:26:53;51.10;;;30.17;;
11524;SDS011;5819;49.648;8.330;2022-12-11T12:29:31;50.00;;;29.23;;
11524;SDS011;5819;49.648;8.330;2022-12-11T12:32:15;49.93;;;29.00;;
11524;SDS011;5819;49.648;8.330;2022-12-11T12:34:54;52.60;;;30.00;;
11524;SDS011;5819;49.648;8.330;2022-12-11T12:37:35;50.80;;;29.27;;
11524;SDS011;5819;49.648;8.330;2022-12-11T12:40:16;52.07;;;30.53;;
11524;SDS011;5819;49.648;8.330;2022-12-11T12:42:51;54.10;;;29.77;;
11524;SDS011;5819;49.648;8.330;2022-12-11T12:45:26;51.70;;;28.93;;
11524;SDS011;5819;49.648;8.330;2022-12-11T12:47:57;50.20;;;29.10;;
11524;SDS011;5819;49.648;8.330;2022-12-11T12:50:25;53.17;;;29.00;;
11524;SDS011;5819;49.648;8.330;2022-12-11T12:53:03;47.33;;;28.40;;
11524;SDS011;5819;49.648;8.330;2022-12-11T12:55:32;51.10;;;29.63;;
11524;SDS011;5819;49.648;8.330;2022-12-11T12:58:02;50.90;;;30.50;;
11524;SDS011;5819;49.648;8.330;2022-12-11T13:00:34;52.37;;;30.13;;
11524;SDS011;5819;49.648;8.330;2022-12-11T13:03:11;46.30;;;28.57;;
11524;SDS011;5819;49.648;8.330;2022-12-11T13:05:41;49.83;;;27.97;;
11524;SDS011;5819;49.648;8.330;2022-12-11T13:08:11;50.80;;;29.97;;
11524;SDS011;5819;49.648;8.330;2022-12-11T13:10:44;50.70;;;30.33;;
11524;SDS011;5819;49.648;8.330;2022-12-11T13:13:28;50.43;;;28.17;;
11524;SDS011;5819;49.648;8.330;2022-12-11T13:16:20;50.73;;;29.43;;
11524;SDS011;5819;49.648;8.330;2022-12-11T13:18:51;50.57;;;29.73;;
11524;SDS011;5819;49.648;8.330;2022-12-11T13:21:25;49.27;;;28.07;;
11524;SDS011;5819;49.648;8.330;2022-12-11T13:24:05;47.93;;;29.00;;
11524;SDS011;5819;49.648;8.330;2022-12-11T13:26:41;51.53;;;28.63;;
11524;SDS011;5819;49.648;8.330;2022-12-11T13:31:58;49.03;;;28.87;;
11524;SDS011;5819;49.648;8.330;2022-12-11T13:34:29;52.23;;;30.27;;
11524;SDS011;5819;49.648;8.330;2022-12-11T13:36:59;53.70;;;29.97;;
11524;SDS011;5819;49.648;8.330;2022-12-11T13:39:30;53.60;;;29.30;;
11524;SDS011;5819;49.648;8.330;2022-12-11T13:42:01;50.03;;;29.10;;
11524;SDS011;5819;49.648;8.330;2022-12-11T13:44:32;50.93;;;28.47;;
11524;SDS011;5819;49.648;8.330;2022-12-11T13:47:11;49.70;;;28.10;;
11524;SDS011;5819;49.648;8.330;2022-12-11T13:49:42;50.67;;;28.43;;
11524;SDS011;5819;49.648;8.330;2022-12-11T13:52:14;64.63;;;35.37;;
11524;SDS011;5819;49.648;8.330;2022-12-11T13:54:46;74.40;;;42.57;;
11524;SDS011;5819;49.648;8.330;2022-12-11T13:57:15;73.93;;;41.83;;
11524;SDS011;5819;49.648;8.330;2022-12-11T13:59:46;58.33;;;32.90;;
11524;SDS011;5819;49.648;8.330;2022-12-11T14:02:18;55.80;;;31.20;;
11524;SDS011;5819;49.648;8.330;2022-12-11T14:04:50;56.43;;;31.63;;
11524;SDS011;5819;49.648;8.330;2022-12-11T14:07:22;49.80;;;29.50;;
11524;SDS011;5819;49.648;8.330;2022-12-11T14:09:52;57.60;;;31.83;;
11524;SDS011;5819;49.648;8.330;2022-12-11T14:12:25;54.63;;;30.80;;
11524;SDS011;5819;49.648;8.330;2022-12-11T14:14:56;55.13;;;31.13;;
11524;SDS011;5819;49.648;8.330;2022-12-11T14:17:29;49.33;;;29.73;;
11524;SDS011;5819;49.648;8.330;2022-12-11T14:20:00;54.17;;;30.10;;
11524;SDS011;5819;49.648;8.330;2022-12-11T14:22:32;53.07;;;30.53;;
11524;SDS011;5819;49.648;8.330;2022-12-11T14:25:01;52.37;;;31.53;;
11524;SDS011;5819;49.648;8.330;2022-12-11T14:27:29;52.27;;;30.80;;
11524;SDS011;5819;49.648;8.330;2022-12-11T14:29:57;53.80;;;31.33;;
11524;SDS011;5819;49.648;8.330;2022-12-11T14:32:40;61.63;;;32.73;;
11524;SDS011;5819;49.648;8.330;2022-12-11T14:35:15;58.97;;;32.27;;
11524;SDS011;5819;49.648;8.330;2022-12-11T14:37:49;55.40;;;31.23;;
11524;SDS011;5819;49.648;8.330;2022-12-11T14:40:18;55.27;;;32.07;;
11524;SDS011;5819;49.648;8.330;2022-12-11T14:42:49;57.33;;;32.77;;
11524;SDS011;5819;49.648;8.330;2022-12-11T14:45:27;59.47;;;32.40;;
11524;SDS011;5819;49.648;8.330;2022-12-11T14:48:06;59.80;;;33.27;;
11524;SDS011;5819;49.648;8.330;2022-12-11T14:50:38;62.10;;;33.90;;
11524;SDS011;5819;49.648;8.330;2022-12-11T14:53:13;56.87;;;32.67;;
11524;SDS011;5819;49.648;8.330;2022-12-11T14:55:43;62.50;;;34.20;;
11524;SDS011;5819;49.648;8.330;2022-12-11T14:58:16;60.73;;;32.80;;
11524;SDS011;5819;49.648;8.330;2022-12-11T15:00:55;55.87;;;33.37;;
11524;SDS011;5819;49.648;8.330;2022-12-11T15:03:29;55.60;;;32.73;;